sensor_id;sensor_type;location;lat;lon;timestamp;pressure;altitude;pressure_sealevel;temperature;humidity
44131;BME280;29792;48.726;9.248;2024-03-17T00:01:32;97595.81;;;7.82;100.00
44131;BME280;29792;48.726;9.248;2024-03-17T00:03:57;97598.44;;;7.81;100.00
44131;BME280;29792;48.726;9.248;2024-03-17T00:06:24;97595.16;;;7.79;100.00
44131;BME280;29792;48.726;9.248;2024-03-17T00:08:49;97597.00;;;7.77;100.00
44131;BME280;29792;48.726;9.248;2024-03-17T00:11:15;97593.63;;;7.76;100.00
44131;BME280;29792;48.726;9.248;2024-03-17T00:13:40;97599.56;;;7.77;100.00
44131;BME280;29792;48.726;9.248;2024-03-17T00:16:06;97594.38;;;7.78;100.00
44131;BME280;29792;48.726;9.248;2024-03-17T00:18:32;97583.34;;;7.78;100.00
44131;BME280;29792;48.726;9.248;2024-03-17T00:20:57;97588.31;;;7.79;100.00
44131;BME280;29792;48.726;9.248;2024-03-17T00:23:22;97588.31;;;7.79;100.00
44131;BME280;29792;48.726;9.248;2024-03-17T00:25:47;97584.97;;;7.79;100.00
44131;BME280;29792;48.726;9.248;2024-03-17T00:28:13;97578.94;;;7.80;100.00
44131;BME280;29792;48.726;9.248;2024-03-17T00:30:38;97582.41;;;7.79;100.00
44131;BME280;29792;48.726;9.248;2024-03-17T00:33:03;97577.31;;;7.79;100.00
44131;BME280;29792;48.726;9.248;2024-03-17T00:35:29;97584.06;;;7.80;100.00
44131;BME280;29792;48.726;9.248;2024-03-17T00:37:55;97578.13;;;7.79;100.00
44131;BME280;29792;48.726;9.248;2024-03-17T00:40:20;97571.41;;;7.78;100.00
44131;BME280;29792;48.726;9.248;2024-03-17T00:42:46;97573.97;;;7.78;100.00
44131;BME280;29792;48.726;9.248;2024-03-17T00:45:12;97570.47;;;7.79;100.00
44131;BME280;29792;48.726;9.248;2024-03-17T00:47:38;97570.47;;;7.79;100.00
44131;BME280;29792;48.726;9.248;2024-03-17T00:50:04;97572.94;;;7.81;100.00
44131;BME280;29792;48.726;9.248;2024-03-17T00:52:30;97568.03;;;7.78;100.00
44131;BME280;29792;48.726;9.248;2024-03-17T00:54:55;97569.78;;;7.77;100.00
44131;BME280;29792;48.726;9.248;2024-03-17T00:57:21;97565.66;;;7.75;100.00
44131;BME280;29792;48.726;9.248;2024-03-17T00:59:46;97565.75;;;7.73;100.00
44131;BME280;29792;48.726;9.248;2024-03-17T01:02:12;97560.75;;;7.72;100.00
44131;BME280;29792;48.726;9.248;2024-03-17T01:04:39;97562.59;;;7.70;100.00
44131;BME280;29792;48.726;9.248;2024-03-17T01:07:04;97562.59;;;7.70;100.00
44131;BME280;29792;48.726;9.248;2024-03-17T01:09:30;97564.19;;;7.71;100.00
44131;BME280;29792;48.726;9.248;2024-03-17T01:11:55;97563.19;;;7.73;100.00
44131;BME280;29792;48.726;9.248;2024-03-17T01:14:20;97564.03;;;7.74;100.00
44131;BME280;29792;48.726;9.248;2024-03-17T01:16:46;97559.75;;;7.74;100.00
44131;BME280;29792;48.726;9.248;2024-03-17T01:19:11;97559.91;;;7.71;100.00
44131;BME280;29792;48.726;9.248;2024-03-17T01:21:36;97543.09;;;7.69;100.00
44131;BME280;29792;48.726;9.248;2024-03-17T01:24:02;97553.28;;;7.69;100.00
44131;BME280;29792;48.726;9.248;2024-03-17T01:26:28;97558.31;;;7.70;100.00
44131;BME280;29792;48.726;9.248;2024-03-17T01:28:53;97552.25;;;7.71;100.00
44131;BME280;29792;48.726;9.248;2024-03-17T01:31:18;97541.72;;;7.77;100.00
44131;BME280;29792;48.726;9.248;2024-03-17T01:33:43;97543.25;;;7.80;100.00
44131;BME280;29792;48.726;9.248;2024-03-17T01:36:09;97542.34;;;7.81;100.00
44131;BME280;29792;48.726;9.248;2024-03-17T01:38:34;97532.88;;;7.83;100.00
44131;BME280;29792;48.726;9.248;2024-03-17T01:40:59;97528.59;;;7.83;100.00
44131;BME280;29792;48.726;9.248;2024-03-17T01:43:26;97534.44;;;7.85;100.00
44131;BME280;29792;48.726;9.248;2024-03-17T01:45:52;97530.84;;;7.88;100.00
44131;BME280;29792;48.726;9.248;2024-03-17T01:48:17;97527.22;;;7.92;100.00
44131;BME280;29792;48.726;9.248;2024-03-17T01:50:45;97519.47;;;7.93;100.00
44131;BME280;29792;48.726;9.248;2024-03-17T01:53:12;97518.34;;;7.97;100.00
44131;BME280;29792;48.726;9.248;2024-03-17T01:55:40;97514.00;;;7.99;100.00
44131;BME280;29792;48.726;9.248;2024-03-17T01:58:07;97506.16;;;8.02;100.00
44131;BME280;29792;48.726;9.248;2024-03-17T02:00:34;97497.56;;;8.03;100.00
44131;BME280;29792;48.726;9.248;2024-03-17T02:03:02;97503.41;;;8.05;100.00
44131;BME280;29792;48.726;9.248;2024-03-17T02:05:28;97499.84;;;8.08;100.00
44131;BME280;29792;48.726;9.248;2024-03-17T02:07:53;97504.03;;;8.09;100.00
44131;BME280;29792;48.726;9.248;2024-03-17T02:10:19;97495.47;;;8.10;100.00
44131;BME280;29792;48.726;9.248;2024-03-17T02:12:44;97494.44;;;8.13;100.00
44131;BME280;29792;48.726;9.248;2024-03-17T02:15:09;97485.88;;;8.14;100.00
44131;BME280;29792;48.726;9.248;2024-03-17T02:17:34;97484.06;;;8.16;100.00
44131;BME280;29792;48.726;9.248;2024-03-17T02:20:00;97483.06;;;8.18;100.00
44131;BME280;29792;48.726;9.248;2024-03-17T02:22:26;97490.59;;;8.20;100.00
44131;BME280;29792;48.726;9.248;2024-03-17T02:24:53;97488.78;;;8.22;100.00
44131;BME280;29792;48.726;9.248;2024-03-17T02:27:18;97482.84;;;8.21;100.00
44131;BME280;29792;48.726;9.248;2024-03-17T02:29:44;97476.84;;;8.22;100.00
44131;BME280;29792;48.726;9.248;2024-03-17T02:32:10;97468.56;;;8.19;100.00
44131;BME280;29792;48.726;9.248;2024-03-17T02:34:37;97477.00;;;8.19;100.00
44131;BME280;29792;48.726;9.248;2024-03-17T02:37:04;97467.03;;;8.16;100.00
44131;BME280;29792;48.726;9.248;2024-03-17T02:39:31;97469.56;;;8.16;100.00
44131;BME280;29792;48.726;9.248;2024-03-17T02:42:10;97472.22;;;8.15;100.00
44131;BME280;29792;48.726;9.248;2024-03-17T02:44:36;97467.19;;;8.13;100.00
44131;BME280;29792;48.726;9.248;2024-03-17T02:47:03;97470.66;;;8.12;100.00
44131;BME280;29792;48.726;9.248;2024-03-17T02:49:30;97469.16;;;8.10;100.00
44131;BME280;29792;48.726;9.248;2024-03-17T02:52:09;97465.03;;;8.07;100.00
44131;BME280;29792;48.726;9.248;2024-03-17T02:54:36;97456.56;;;8.07;100.00
44131;BME280;29792;48.726;9.248;2024-03-17T02:57:02;97461.75;;;8.05;100.00
44131;BME280;29792;48.726;9.248;2024-03-17T02:59:28;97464.31;;;8.05;100.00
44131;BME280;29792;48.726;9.248;2024-03-17T03:01:53;97459.31;;;8.03;100.00
44131;BME280;29792;48.726;9.248;2024-03-17T03:04:19;97461.97;;;8.02;100.00
44131;BME280;29792;48.726;9.248;2024-03-17T03:06:45;97463.06;;;7.98;100.00
44131;BME280;29792;48.726;9.248;2024-03-17T03:09:10;97459.09;;;7.94;100.00
44131;BME280;29792;48.726;9.248;2024-03-17T03:11:40;97470.47;;;7.88;100.00
44131;BME280;29792;48.726;9.248;2024-03-17T03:14:07;97465.75;;;7.82;100.00
44131;BME280;29792;48.726;9.248;2024-03-17T03:16:32;97474.50;;;7.78;100.00
44131;BME280;29792;48.726;9.248;2024-03-17T03:18:58;97467.94;;;7.74;100.00
44131;BME280;29792;48.726;9.248;2024-03-17T03:21:24;97462.19;;;7.71;100.00
44131;BME280;29792;48.726;9.248;2024-03-17T03:23:49;97455.50;;;7.70;100.00
44131;BME280;29792;48.726;9.248;2024-03-17T03:26:14;97457.31;;;7.68;100.00
44131;BME280;29792;48.726;9.248;2024-03-17T03:28:39;97465.78;;;7.68;100.00
44131;BME280;29792;48.726;9.248;2024-03-17T03:31:05;97457.41;;;7.66;100.00
44131;BME280;29792;48.726;9.248;2024-03-17T03:33:30;97455.75;;;7.65;100.00
44131;BME280;29792;48.726;9.248;2024-03-17T03:35:56;97457.50;;;7.64;100.00
44131;BME280;29792;48.726;9.248;2024-03-17T03:38:22;97454.22;;;7.62;100.00
44131;BME280;29792;48.726;9.248;2024-03-17T03:40:48;97461.78;;;7.64;100.00
44131;BME280;29792;48.726;9.248;2024-03-17T03:43:14;97465.22;;;7.63;100.00
44131;BME280;29792;48.726;9.248;2024-03-17T03:45:39;97468.72;;;7.62;100.00
44131;BME280;29792;48.726;9.248;2024-03-17T03:48:05;97452.78;;;7.58;100.00
44131;BME280;29792;48.726;9.248;2024-03-17T03:50:31;97455.41;;;7.57;100.00
44131;BME280;29792;48.726;9.248;2024-03-17T03:52:58;97456.41;;;7.54;100.00
44131;BME280;29792;48.726;9.248;2024-03-17T03:55:23;97450.69;;;7.51;100.00
44131;BME280;29792;48.726;9.248;2024-03-17T03:57:49;97452.50;;;7.49;100.00
44131;BME280;29792;48.726;9.248;2024-03-17T04:00:20;97452.78;;;7.44;100.00
44131;BME280;29792;48.726;9.248;2024-03-17T04:02:50;97454.91;;;7.38;100.00
44131;BME280;29792;48.726;9.248;2024-03-17T04:05:17;97462.63;;;7.36;100.00
44131;BME280;29792;48.726;9.248;2024-03-17T04:07:43;97455.16;;;7.33;100.00
44131;BME280;29792;48.726;9.248;2024-03-17T04:10:11;97450.06;;;7.33;100.00
44131;BME280;29792;48.726;9.248;2024-03-17T04:12:36;97461.91;;;7.34;100.00
44131;BME280;29792;48.726;9.248;2024-03-17T04:15:03;97452.63;;;7.33;100.00
44131;BME280;29792;48.726;9.248;2024-03-17T04:17:31;97462.81;;;7.33;100.00
44131;BME280;29792;48.726;9.248;2024-03-17T04:19:56;97456.97;;;7.31;100.00
44131;BME280;29792;48.726;9.248;2024-03-17T04:22:21;97462.06;;;7.31;100.00
44131;BME280;29792;48.726;9.248;2024-03-17T04:24:48;97467.91;;;7.33;100.00
44131;BME280;29792;48.726;9.248;2024-03-17T04:27:25;97462.81;;;7.33;100.00
44131;BME280;29792;48.726;9.248;2024-03-17T04:29:55;97463.53;;;7.35;100.00
44131;BME280;29792;48.726;9.248;2024-03-17T04:32:22;97466.91;;;7.36;100.00
44131;BME280;29792;48.726;9.248;2024-03-17T04:34:47;97461.00;;;7.35;100.00
44131;BME280;29792;48.726;9.248;2024-03-17T04:37:13;97455.16;;;7.33;100.00
44131;BME280;29792;48.726;9.248;2024-03-17T04:39:39;97457.88;;;7.30;100.00
44131;BME280;29792;48.726;9.248;2024-03-17T04:42:05;97459.72;;;7.28;100.00
44131;BME280;29792;48.726;9.248;2024-03-17T04:44:31;97458.09;;;7.27;100.00
44131;BME280;29792;48.726;9.248;2024-03-17T04:46:57;97465.06;;;7.23;100.00
44131;BME280;29792;48.726;9.248;2024-03-17T04:49:22;97468.53;;;7.22;100.00
44131;BME280;29792;48.726;9.248;2024-03-17T04:51:48;97467.00;;;7.20;100.00
44131;BME280;29792;48.726;9.248;2024-03-17T04:54:13;97460.28;;;7.19;100.00
44131;BME280;29792;48.726;9.248;2024-03-17T04:56:38;97465.44;;;7.17;100.00
44131;BME280;29792;48.726;9.248;2024-03-17T04:59:03;97457.88;;;7.16;100.00
44131;BME280;29792;48.726;9.248;2024-03-17T05:01:30;97461.47;;;7.13;100.00
44131;BME280;29792;48.726;9.248;2024-03-17T05:03:56;97464.78;;;7.14;100.00
44131;BME280;29792;48.726;9.248;2024-03-17T05:06:21;97458.25;;;7.10;100.00
44131;BME280;29792;48.726;9.248;2024-03-17T05:08:47;97457.72;;;7.05;100.00
44131;BME280;29792;48.726;9.248;2024-03-17T05:11:12;97456.06;;;7.04;100.00
44131;BME280;29792;48.726;9.248;2024-03-17T05:13:39;97462.97;;;7.02;100.00
44131;BME280;29792;48.726;9.248;2024-03-17T05:16:04;97458.06;;;6.99;100.00
44131;BME280;29792;48.726;9.248;2024-03-17T05:18:30;97458.25;;;6.96;100.00
44131;BME280;29792;48.726;9.248;2024-03-17T05:21:06;97457.59;;;6.92;100.00
44131;BME280;29792;48.726;9.248;2024-03-17T05:23:35;97458.78;;;6.86;100.00
44131;BME280;29792;48.726;9.248;2024-03-17T05:26:01;97460.69;;;6.83;100.00
44131;BME280;29792;48.726;9.248;2024-03-17T05:28:28;97458.31;;;6.80;100.00
44131;BME280;29792;48.726;9.248;2024-03-17T05:30:54;97470.31;;;6.78;100.00
44131;BME280;29792;48.726;9.248;2024-03-17T05:33:21;97476.31;;;6.77;100.00
44131;BME280;29792;48.726;9.248;2024-03-17T05:35:51;97469.66;;;6.74;100.00
44131;BME280;29792;48.726;9.248;2024-03-17T05:38:21;97466.28;;;6.74;100.00
44131;BME280;29792;48.726;9.248;2024-03-17T05:40:57;97468.03;;;6.73;100.00
44131;BME280;29792;48.726;9.248;2024-03-17T05:43:25;97468.03;;;6.73;100.00
44131;BME280;29792;48.726;9.248;2024-03-17T05:45:52;97469.66;;;6.74;100.00
44131;BME280;29792;48.726;9.248;2024-03-17T05:48:17;97470.47;;;6.75;100.00
44131;BME280;29792;48.726;9.248;2024-03-17T05:50:42;97469.50;;;6.77;100.00
44131;BME280;29792;48.726;9.248;2024-03-17T05:53:08;97466.06;;;6.78;100.00
44131;BME280;29792;48.726;9.248;2024-03-17T05:55:36;97469.41;;;6.79;100.00
44131;BME280;29792;48.726;9.248;2024-03-17T05:58:02;97472.50;;;6.84;100.00
44131;BME280;29792;48.726;9.248;2024-03-17T06:00:27;97465.69;;;6.84;100.00
44131;BME280;29792;48.726;9.248;2024-03-17T06:02:53;97463.88;;;6.86;100.00
44131;BME280;29792;48.726;9.248;2024-03-17T06:05:18;97465.53;;;6.87;100.00
44131;BME280;29792;48.726;9.248;2024-03-17T06:07:43;97459.59;;;6.87;100.00
44131;BME280;29792;48.726;9.248;2024-03-17T06:10:09;97472.41;;;6.85;100.00
44131;BME280;29792;48.726;9.248;2024-03-17T06:12:34;97457.31;;;6.82;100.00
44131;BME280;29792;48.726;9.248;2024-03-17T06:14:59;97459.03;;;6.82;100.00
44131;BME280;29792;48.726;9.248;2024-03-17T06:17:27;97449.88;;;6.79;100.00
44131;BME280;29792;48.726;9.248;2024-03-17T06:19:52;97451.41;;;6.82;100.00
44131;BME280;29792;48.726;9.248;2024-03-17T06:22:17;97456.41;;;6.83;100.00
44131;BME280;29792;48.726;9.248;2024-03-17T06:24:43;97454.69;;;6.84;100.00
44131;BME280;29792;48.726;9.248;2024-03-17T06:27:08;97455.34;;;6.87;100.00
44131;BME280;29792;48.726;9.248;2024-03-17T06:29:33;97458.41;;;6.93;100.00
44131;BME280;29792;48.726;9.248;2024-03-17T06:31:58;97459.63;;;7.01;100.00
44131;BME280;29792;48.726;9.248;2024-03-17T06:34:25;97450.25;;;7.16;100.00
44131;BME280;29792;48.726;9.248;2024-03-17T06:36:50;97443.06;;;7.22;100.00
44131;BME280;29792;48.726;9.248;2024-03-17T06:39:15;97446.16;;;7.27;100.00
44131;BME280;29792;48.726;9.248;2024-03-17T06:41:42;97452.78;;;7.30;100.00
44131;BME280;29792;48.726;9.248;2024-03-17T06:44:07;97455.34;;;7.30;100.00
44131;BME280;29792;48.726;9.248;2024-03-17T06:46:33;97461.06;;;7.34;100.00
44131;BME280;29792;48.726;9.248;2024-03-17T06:48:58;97461.53;;;7.40;100.00
44131;BME280;29792;48.726;9.248;2024-03-17T06:51:25;97455.78;;;7.51;100.00
44131;BME280;29792;48.726;9.248;2024-03-17T06:53:50;97441.38;;;7.64;100.00
44131;BME280;29792;48.726;9.248;2024-03-17T06:56:15;97427.25;;;7.73;100.00
44131;BME280;29792;48.726;9.248;2024-03-17T06:58:40;97437.78;;;7.81;100.00
44131;BME280;29792;48.726;9.248;2024-03-17T07:01:06;97449.25;;;7.88;100.00
44131;BME280;29792;48.726;9.248;2024-03-17T07:03:31;97443.66;;;7.95;100.00
44131;BME280;29792;48.726;9.248;2024-03-17T07:06:00;97449.91;;;8.04;100.00
44131;BME280;29792;48.726;9.248;2024-03-17T07:08:28;97459.38;;;8.16;100.00
44131;BME280;29792;48.726;9.248;2024-03-17T07:10:58;97461.25;;;8.27;100.00
44131;BME280;29792;48.726;9.248;2024-03-17T07:13:24;97448.72;;;8.36;100.00
44131;BME280;29792;48.726;9.248;2024-03-17T07:15:49;97460.09;;;8.45;100.00
44131;BME280;29792;48.726;9.248;2024-03-17T07:18:15;97453.88;;;8.49;100.00
44131;BME280;29792;48.726;9.248;2024-03-17T07:20:40;97447.63;;;8.53;100.00
44131;BME280;29792;48.726;9.248;2024-03-17T07:23:05;97458.28;;;8.60;100.00
44131;BME280;29792;48.726;9.248;2024-03-17T07:25:31;97454.53;;;8.65;100.00
44131;BME280;29792;48.726;9.248;2024-03-17T07:27:56;97446.63;;;8.68;100.00
44131;BME280;29792;48.726;9.248;2024-03-17T07:30:21;97449.91;;;8.70;100.00
44131;BME280;29792;48.726;9.248;2024-03-17T07:32:47;97449.09;;;8.70;100.00
44131;BME280;29792;48.726;9.248;2024-03-17T07:35:12;97446.44;;;8.71;100.00
44131;BME280;29792;48.726;9.248;2024-03-17T07:37:37;97442.47;;;8.80;100.00
44131;BME280;29792;48.726;9.248;2024-03-17T07:40:05;97444.31;;;8.91;100.00
44131;BME280;29792;48.726;9.248;2024-03-17T07:42:32;97443.59;;;9.01;100.00
44131;BME280;29792;48.726;9.248;2024-03-17T07:44:57;97442.06;;;9.11;100.00
44131;BME280;29792;48.726;9.248;2024-03-17T07:47:23;97440.31;;;9.25;100.00
44131;BME280;29792;48.726;9.248;2024-03-17T07:49:48;97438.47;;;9.39;100.00
44131;BME280;29792;48.726;9.248;2024-03-17T07:52:13;97444.56;;;9.62;100.00
44131;BME280;29792;48.726;9.248;2024-03-17T07:54:38;97440.28;;;9.86;100.00
44131;BME280;29792;48.726;9.248;2024-03-17T07:57:04;97442.75;;;10.12;100.00
44131;BME280;29792;48.726;9.248;2024-03-17T07:59:29;97440.75;;;10.28;100.00
44131;BME280;29792;48.726;9.248;2024-03-17T08:01:56;97450.16;;;10.51;100.00
44131;BME280;29792;48.726;9.248;2024-03-17T08:04:21;97446.47;;;10.66;100.00
44131;BME280;29792;48.726;9.248;2024-03-17T08:06:47;97443.22;;;10.76;100.00
44131;BME280;29792;48.726;9.248;2024-03-17T08:09:12;97447.19;;;10.80;100.00
44131;BME280;29792;48.726;9.248;2024-03-17T08:11:37;97442.56;;;10.85;100.00
44131;BME280;29792;48.726;9.248;2024-03-17T08:14:04;97442.56;;;10.85;100.00
44131;BME280;29792;48.726;9.248;2024-03-17T08:16:30;97437.19;;;10.88;100.00
44131;BME280;29792;48.726;9.248;2024-03-17T08:18:56;97449.31;;;10.97;100.00
44131;BME280;29792;48.726;9.248;2024-03-17T08:21:22;97443.72;;;11.03;100.00
44131;BME280;29792;48.726;9.248;2024-03-17T08:23:47;97442.47;;;11.08;100.00
44131;BME280;29792;48.726;9.248;2024-03-17T08:26:13;97448.16;;;11.12;100.00
44131;BME280;29792;48.726;9.248;2024-03-17T08:28:38;97447.84;;;11.17;100.00
44131;BME280;29792;48.726;9.248;2024-03-17T08:31:04;97442.84;;;11.26;100.00
44131;BME280;29792;48.726;9.248;2024-03-17T08:33:30;97447.84;;;11.39;100.00
44131;BME280;29792;48.726;9.248;2024-03-17T08:36:03;97436.66;;;11.51;100.00
44131;BME280;29792;48.726;9.248;2024-03-17T08:38:30;97440.72;;;11.65;100.00
44131;BME280;29792;48.726;9.248;2024-03-17T08:40:56;97434.03;;;11.73;100.00
44131;BME280;29792;48.726;9.248;2024-03-17T08:43:23;97435.34;;;11.79;100.00
44131;BME280;29792;48.726;9.248;2024-03-17T08:45:58;97436.97;;;11.91;100.00
44131;BME280;29792;48.726;9.248;2024-03-17T08:48:26;97430.41;;;11.98;100.00
44131;BME280;29792;48.726;9.248;2024-03-17T08:51:02;97424.28;;;12.10;100.00
44131;BME280;29792;48.726;9.248;2024-03-17T08:53:28;97421.25;;;12.37;100.00
44131;BME280;29792;48.726;9.248;2024-03-17T08:55:55;97425.34;;;12.60;100.00
44131;BME280;29792;48.726;9.248;2024-03-17T08:58:31;97420.06;;;12.83;100.00
44131;BME280;29792;48.726;9.248;2024-03-17T09:01:07;97419.66;;;13.08;100.00
44131;BME280;29792;48.726;9.248;2024-03-17T09:03:34;97420.16;;;13.23;100.00
44131;BME280;29792;48.726;9.248;2024-03-17T09:06:00;97420.66;;;13.38;99.65
44131;BME280;29792;48.726;9.248;2024-03-17T09:08:25;97424.34;;;13.54;98.82
44131;BME280;29792;48.726;9.248;2024-03-17T09:10:53;97420.47;;;13.69;98.67
44131;BME280;29792;48.726;9.248;2024-03-17T09:13:20;97415.47;;;13.87;97.64
44131;BME280;29792;48.726;9.248;2024-03-17T09:16:01;97413.63;;;14.08;97.04
44131;BME280;29792;48.726;9.248;2024-03-17T09:18:30;97415.22;;;14.19;94.42
44131;BME280;29792;48.726;9.248;2024-03-17T09:21:00;97409.00;;;14.31;93.19
44131;BME280;29792;48.726;9.248;2024-03-17T09:23:26;97410.94;;;14.48;92.71
44131;BME280;29792;48.726;9.248;2024-03-17T09:26:00;97408.47;;;14.66;92.53
44131;BME280;29792;48.726;9.248;2024-03-17T09:28:27;97410.88;;;14.87;92.00
44131;BME280;29792;48.726;9.248;2024-03-17T09:30:53;97409.22;;;14.96;89.68
44131;BME280;29792;48.726;9.248;2024-03-17T09:33:20;97402.66;;;15.01;87.70
44131;BME280;29792;48.726;9.248;2024-03-17T09:35:56;97404.31;;;15.02;86.18
44131;BME280;29792;48.726;9.248;2024-03-17T09:38:21;97404.28;;;15.12;86.23
44131;BME280;29792;48.726;9.248;2024-03-17T09:40:47;97401.81;;;15.20;85.37
44131;BME280;29792;48.726;9.248;2024-03-17T09:43:15;97398.50;;;15.27;84.11
44131;BME280;29792;48.726;9.248;2024-03-17T09:45:40;97400.25;;;15.37;83.30
44131;BME280;29792;48.726;9.248;2024-03-17T09:48:06;97403.47;;;15.48;82.38
44131;BME280;29792;48.726;9.248;2024-03-17T09:50:33;97402.34;;;15.51;79.61
44131;BME280;29792;48.726;9.248;2024-03-17T09:52:59;97403.28;;;15.50;76.97
44131;BME280;29792;48.726;9.248;2024-03-17T09:55:26;97397.75;;;15.45;75.13
44131;BME280;29792;48.726;9.248;2024-03-17T09:57:51;97409.47;;;15.39;73.63
44131;BME280;29792;48.726;9.248;2024-03-17T10:00:17;97416.69;;;15.36;74.16
44131;BME280;29792;48.726;9.248;2024-03-17T10:02:46;97410.84;;;15.34;73.35
44131;BME280;29792;48.726;9.248;2024-03-17T10:05:24;97411.78;;;15.33;71.52
44131;BME280;29792;48.726;9.248;2024-03-17T10:07:50;97407.53;;;15.41;69.32
44131;BME280;29792;48.726;9.248;2024-03-17T10:10:16;97404.53;;;15.55;69.18
44131;BME280;29792;48.726;9.248;2024-03-17T10:12:42;97403.91;;;15.71;70.26
44131;BME280;29792;48.726;9.248;2024-03-17T10:15:10;97397.56;;;15.83;69.20
44131;BME280;29792;48.726;9.248;2024-03-17T10:17:36;97394.84;;;15.85;67.82
44131;BME280;29792;48.726;9.248;2024-03-17T10:20:21;97399.31;;;15.83;67.53
44131;BME280;29792;48.726;9.248;2024-03-17T10:23:02;97398.81;;;15.79;65.17
44131;BME280;29792;48.726;9.248;2024-03-17T10:25:29;97396.25;;;15.79;65.47
44131;BME280;29792;48.726;9.248;2024-03-17T10:27:56;97393.88;;;15.86;66.81
44131;BME280;29792;48.726;9.248;2024-03-17T10:30:22;97387.16;;;15.93;64.28
44131;BME280;29792;48.726;9.248;2024-03-17T10:32:55;97396.03;;;16.08;64.38
44131;BME280;29792;48.726;9.248;2024-03-17T10:35:32;97397.06;;;16.33;64.48
44131;BME280;29792;48.726;9.248;2024-03-17T10:38:02;97402.13;;;16.60;62.99
44131;BME280;29792;48.726;9.248;2024-03-17T10:40:29;97403.44;;;16.82;58.77
44131;BME280;29792;48.726;9.248;2024-03-17T10:42:56;97398.47;;;17.23;60.36
44131;BME280;29792;48.726;9.248;2024-03-17T10:45:22;97400.81;;;17.76;58.71
44131;BME280;29792;48.726;9.248;2024-03-17T10:47:49;97397.13;;;17.95;56.57
44131;BME280;29792;48.726;9.248;2024-03-17T10:50:20;97405.09;;;18.09;55.19
44131;BME280;29792;48.726;9.248;2024-03-17T10:52:47;97408.53;;;18.26;55.02
44131;BME280;29792;48.726;9.248;2024-03-17T10:55:24;97409.19;;;18.28;54.85
44131;BME280;29792;48.726;9.248;2024-03-17T10:57:54;97405.94;;;18.42;55.88
44131;BME280;29792;48.726;9.248;2024-03-17T11:00:24;97402.19;;;19.01;55.13
44131;BME280;29792;48.726;9.248;2024-03-17T11:02:51;97394.59;;;19.39;53.24
44131;BME280;29792;48.726;9.248;2024-03-17T11:05:20;97403.44;;;20.45;53.93
44131;BME280;29792;48.726;9.248;2024-03-17T11:07:48;97399.13;;;21.78;52.81
44131;BME280;29792;48.726;9.248;2024-03-17T11:10:26;97393.50;;;22.81;47.56
44131;BME280;29792;48.726;9.248;2024-03-17T11:12:55;97391.16;;;22.86;44.78
44131;BME280;29792;48.726;9.248;2024-03-17T11:20:36;97384.53;;;21.98;46.15
44131;BME280;29792;48.726;9.248;2024-03-17T11:23:02;97385.22;;;21.92;45.14
44131;BME280;29792;48.726;9.248;2024-03-17T11:28:00;97394.59;;;22.01;45.84
44131;BME280;29792;48.726;9.248;2024-03-17T11:39:04;97373.44;;;23.16;41.56
44131;BME280;29792;48.726;9.248;2024-03-17T11:41:49;97369.72;;;23.38;41.86
44131;BME280;29792;48.726;9.248;2024-03-17T11:44:15;97358.19;;;23.67;41.48
44131;BME280;29792;48.726;9.248;2024-03-17T11:46:41;97362.09;;;23.91;42.07
44131;BME280;29792;48.726;9.248;2024-03-17T11:49:18;97363.50;;;24.00;39.45
44131;BME280;29792;48.726;9.248;2024-03-17T11:51:44;97354.94;;;23.58;39.39
44131;BME280;29792;48.726;9.248;2024-03-17T11:54:18;97359.84;;;22.93;40.29
44131;BME280;29792;48.726;9.248;2024-03-17T11:56:54;97359.06;;;22.00;40.45
44131;BME280;29792;48.726;9.248;2024-03-17T11:59:21;97348.22;;;21.17;41.48
44131;BME280;29792;48.726;9.248;2024-03-17T12:01:50;97353.66;;;20.63;42.92
44131;BME280;29792;48.726;9.248;2024-03-17T12:04:17;97351.72;;;20.19;43.72
44131;BME280;29792;48.726;9.248;2024-03-17T12:06:45;97350.53;;;19.85;45.45
44131;BME280;29792;48.726;9.248;2024-03-17T12:09:18;97347.44;;;19.58;45.71
44131;BME280;29792;48.726;9.248;2024-03-17T12:11:57;97337.63;;;19.37;45.67
44131;BME280;29792;48.726;9.248;2024-03-17T12:14:22;97342.25;;;19.11;47.12
44131;BME280;29792;48.726;9.248;2024-03-17T12:16:58;97333.88;;;18.93;48.24
44131;BME280;29792;48.726;9.248;2024-03-17T12:19:24;97332.63;;;18.81;48.60
44131;BME280;29792;48.726;9.248;2024-03-17T12:21:52;97330.84;;;18.73;50.01
44131;BME280;29792;48.726;9.248;2024-03-17T12:24:22;97337.69;;;18.58;49.31
44131;BME280;29792;48.726;9.248;2024-03-17T12:26:50;97332.00;;;18.38;48.71
44131;BME280;29792;48.726;9.248;2024-03-17T12:29:29;97331.69;;;18.17;49.34
44131;BME280;29792;48.726;9.248;2024-03-17T12:32:14;97332.81;;;17.90;50.68
44131;BME280;29792;48.726;9.248;2024-03-17T12:34:42;97330.22;;;17.74;51.10
44131;BME280;29792;48.726;9.248;2024-03-17T12:37:07;97330.50;;;17.63;51.72
44131;BME280;29792;48.726;9.248;2024-03-17T12:39:34;97323.78;;;17.52;52.00
44131;BME280;29792;48.726;9.248;2024-03-17T12:44:49;97303.66;;;17.30;53.05
44131;BME280;29792;48.726;9.248;2024-03-17T12:47:16;97308.66;;;17.23;53.40
44131;BME280;29792;48.726;9.248;2024-03-17T12:49:47;97308.34;;;17.18;53.17
44131;BME280;29792;48.726;9.248;2024-03-17T12:52:25;97298.78;;;17.10;53.53
44131;BME280;29792;48.726;9.248;2024-03-17T12:55:04;97301.94;;;16.96;54.09
44131;BME280;29792;48.726;9.248;2024-03-17T12:57:49;97305.00;;;16.92;53.19
44131;BME280;29792;48.726;9.248;2024-03-17T13:00:34;97304.00;;;16.85;53.58
44131;BME280;29792;48.726;9.248;2024-03-17T13:03:03;97304.09;;;16.75;54.14
44131;BME280;29792;48.726;9.248;2024-03-17T13:05:30;97294.16;;;16.62;54.12
44131;BME280;29792;48.726;9.248;2024-03-17T13:07:56;97293.38;;;16.62;55.57
44131;BME280;29792;48.726;9.248;2024-03-17T13:10:23;97289.28;;;16.59;55.21
44131;BME280;29792;48.726;9.248;2024-03-17T13:13:07;97290.03;;;16.52;56.10
44131;BME280;29792;48.726;9.248;2024-03-17T13:15:33;97296.66;;;16.54;55.54
44131;BME280;29792;48.726;9.248;2024-03-17T13:18:02;97292.81;;;16.58;55.55
44131;BME280;29792;48.726;9.248;2024-03-17T13:20:29;97292.75;;;16.68;56.34